createdAt,value
2018-05-02T00:00:40.650Z,50.96
2018-05-02T00:03:08.312Z,51.19
2018-05-02T00:05:36.287Z,51.21
2018-05-02T00:08:04.049Z,51.30
2018-05-02T00:10:31.912Z,51.60
2018-05-02T00:12:59.606Z,51.51
2018-05-02T00:15:27.193Z,51.23
2018-05-02T00:17:54.829Z,51.49
2018-05-02T00:20:22.417Z,50.81
2018-05-02T00:22:50.057Z,50.81
2018-05-02T00:25:17.652Z,51.11
2018-05-02T00:27:45.667Z,51.54
2018-05-02T00:30:13.635Z,51.42
2018-05-02T00:32:41.227Z,51.25
2018-05-02T00:35:08.825Z,50.79
2018-05-02T00:37:36.432Z,50.48
2018-05-02T00:40:04.024Z,50.45
2018-05-02T00:42:31.631Z,50.90
2018-05-02T00:44:59.268Z,51.40
2018-05-02T00:47:27.413Z,51.32
2018-05-02T00:49:55.064Z,51.43
2018-05-02T00:52:22.658Z,51.99
2018-05-02T00:54:50.940Z,52.29
2018-05-02T00:57:18.525Z,52.43
2018-05-02T00:59:46.120Z,52.71
2018-05-02T01:02:13.744Z,52.88
2018-05-02T01:04:41.415Z,52.87
2018-05-02T01:07:09.109Z,52.77
2018-05-02T01:09:37.080Z,53.23
2018-05-02T01:12:04.654Z,53.67
2018-05-02T01:14:32.848Z,53.71
2018-05-02T01:17:00.440Z,54.03
2018-05-02T01:19:28.037Z,53.97
2018-05-02T01:21:55.682Z,54.10
2018-05-02T01:24:23.251Z,53.89
2018-05-02T01:26:50.836Z,53.94
2018-05-02T01:29:18.480Z,53.86
2018-05-02T01:31:46.026Z,54.07
2018-05-02T01:34:13.581Z,53.95
2018-05-02T01:36:41.152Z,54.67
2018-05-02T01:39:08.729Z,54.85
2018-05-02T01:41:36.583Z,55.10
2018-05-02T01:44:04.286Z,55.46
2018-05-02T01:46:31.813Z,55.31
2018-05-02T01:49:11.064Z,55.30
2018-05-02T01:51:38.722Z,55.63
2018-05-02T01:54:06.286Z,55.90
2018-05-02T01:56:33.843Z,56.05
2018-05-02T01:59:01.477Z,56.41
2018-05-02T02:01:29.098Z,56.59
2018-05-02T02:03:56.741Z,56.68
2018-05-02T02:06:24.302Z,56.68
2018-05-02T02:08:51.884Z,56.75
2018-05-02T02:11:19.459Z,56.95
2018-05-02T02:13:47.251Z,56.91
2018-05-02T02:16:14.792Z,56.88
2018-05-02T02:18:42.383Z,56.71
2018-05-02T02:21:09.975Z,56.66
2018-05-02T02:23:37.913Z,56.68
2018-05-02T02:26:05.660Z,56.70
2018-05-02T02:28:33.293Z,56.77
2018-05-02T02:31:00.887Z,56.36
2018-05-02T02:33:28.498Z,55.92
2018-05-02T02:35:56.152Z,55.90
2018-05-02T02:38:24.114Z,56.00
2018-05-02T02:40:51.789Z,56.20
2018-05-02T02:43:19.398Z,56.28
2018-05-02T02:45:47.389Z,56.57
2018-05-02T02:48:15.010Z,56.63
2018-05-02T02:50:42.578Z,57.19
2018-05-02T02:53:10.674Z,57.22
2018-05-02T02:55:38.335Z,57.65
2018-05-02T02:58:06.410Z,57.99
2018-05-02T03:00:34.176Z,58.27
2018-05-02T03:03:01.827Z,58.36
2018-05-02T03:05:29.572Z,58.46
2018-05-02T03:07:57.877Z,58.61
2018-05-02T03:10:25.764Z,58.55
2018-05-02T03:12:54.810Z,58.51
2018-05-02T03:15:22.420Z,58.72
2018-05-02T03:17:49.974Z,58.94
2018-05-02T03:20:17.564Z,58.92
2018-05-02T03:22:45.077Z,58.92
2018-05-02T03:25:13.480Z,59.29
2018-05-02T03:27:41.060Z,59.65
2018-05-02T03:30:08.595Z,59.60
2018-05-02T03:32:36.577Z,59.76
2018-05-02T03:35:04.103Z,59.77
2018-05-02T03:37:31.637Z,59.85
2018-05-02T03:39:59.205Z,60.06
2018-05-02T03:42:26.814Z,60.09
2018-05-02T03:44:54.379Z,60.07
2018-05-02T03:47:21.976Z,60.23
2018-05-02T03:49:49.589Z,60.53
2018-05-02T03:52:17.143Z,60.65
2018-05-02T03:54:44.898Z,60.64
2018-05-02T03:57:12.703Z,60.83
2018-05-02T03:59:52.344Z,60.90
2018-05-02T04:02:32.091Z,61.18
2018-05-02T04:05:11.397Z,61.16
2018-05-02T04:07:39.317Z,61.12
2018-05-02T04:10:06.866Z,61.11
2018-05-02T04:12:34.457Z,61.05
2018-05-02T04:15:02.608Z,61.16
2018-05-02T04:17:30.238Z,61.29
2018-05-02T04:19:57.780Z,61.70
2018-05-02T04:22:25.394Z,61.55
2018-05-02T04:24:53.201Z,61.61
2018-05-02T04:27:21.103Z,61.57
2018-05-02T04:29:48.715Z,61.43
2018-05-02T04:32:16.321Z,60.79
2018-05-02T04:34:43.901Z,60.51
2018-05-02T04:37:12.203Z,60.42
2018-05-02T04:39:40.030Z,60.35
2018-05-02T04:42:07.625Z,59.73
2018-05-02T04:44:35.185Z,59.49
2018-05-02T04:47:02.762Z,58.86
2018-05-02T04:49:30.429Z,57.91
2018-05-02T04:51:58.054Z,57.09
2018-05-02T04:54:25.825Z,57.49
2018-05-02T04:56:53.391Z,57.71
2018-05-02T04:59:20.916Z,57.45
2018-05-02T05:01:48.502Z,57.36
2018-05-02T05:04:16.049Z,57.26
2018-05-02T05:06:43.722Z,57.39
2018-05-02T05:09:11.274Z,57.79
2018-05-02T05:11:38.830Z,56.99
2018-05-02T05:14:06.377Z,56.49
2018-05-02T05:16:33.908Z,55.42
2018-05-02T05:19:01.486Z,54.67
2018-05-02T05:21:29.024Z,55.22
2018-05-02T05:23:56.556Z,54.47
2018-05-02T05:26:24.140Z,53.96
2018-05-02T05:28:52.060Z,53.37
2018-05-02T05:31:19.639Z,52.86
2018-05-02T05:33:47.500Z,53.11
2018-05-02T05:36:15.081Z,51.41
2018-05-02T05:38:42.653Z,51.42
2018-05-02T05:41:10.385Z,50.52
2018-05-02T05:43:38.140Z,50.01
2018-05-02T05:46:05.720Z,49.42
2018-05-02T05:48:33.347Z,49.65
2018-05-02T05:51:01.168Z,48.93
2018-05-02T05:53:28.715Z,46.97
2018-05-02T05:55:56.300Z,48.56
2018-05-02T05:58:23.892Z,48.08
2018-05-02T06:00:51.435Z,47.73
2018-05-02T06:03:19.918Z,47.57
2018-05-02T06:05:47.618Z,45.87
2018-05-02T06:08:16.134Z,45.69
2018-05-02T06:10:44.192Z,46.68
2018-05-02T06:13:11.805Z,45.97
2018-05-02T06:15:39.344Z,45.55
2018-05-02T06:18:07.349Z,45.33
2018-05-02T06:20:35.343Z,45.44
2018-05-02T06:23:02.874Z,45.80
2018-05-02T06:25:30.459Z,45.98
2018-05-02T06:27:57.997Z,45.33
2018-05-02T06:30:25.509Z,44.42
2018-05-02T06:32:53.046Z,44.26
2018-05-02T06:35:20.619Z,44.29
2018-05-02T06:37:48.229Z,44.02
2018-05-02T06:40:15.771Z,43.41
2018-05-02T06:42:43.345Z,42.95
2018-05-02T06:45:11.324Z,42.20
2018-05-02T06:47:38.941Z,42.30
2018-05-02T06:50:06.564Z,43.16
2018-05-02T06:52:34.118Z,42.25
2018-05-02T06:55:01.683Z,41.64
2018-05-02T06:57:29.223Z,42.69
2018-05-02T06:59:56.794Z,42.02
2018-05-02T07:02:24.387Z,42.03
2018-05-02T07:04:52.170Z,41.28
2018-05-02T07:07:19.754Z,41.04
2018-05-02T07:09:47.413Z,41.17
2018-05-02T07:12:15.030Z,40.97
2018-05-02T07:14:42.727Z,41.12
2018-05-02T07:17:10.436Z,40.92
2018-05-02T07:19:37.977Z,40.95
2018-05-02T07:22:05.710Z,40.79
2018-05-02T07:24:33.339Z,40.99
2018-05-02T07:27:00.924Z,40.03
2018-05-02T07:29:28.667Z,40.57
2018-05-02T07:31:56.279Z,39.76
2018-05-02T07:34:23.906Z,39.82
2018-05-02T07:36:51.499Z,39.21
2018-05-02T07:39:19.159Z,39.48
2018-05-02T07:41:46.753Z,39.41
2018-05-02T07:44:14.385Z,39.27
2018-05-02T07:46:41.956Z,39.16
2018-05-02T07:49:09.576Z,39.18
2018-05-02T07:51:37.133Z,39.33
2018-05-02T07:54:04.840Z,39.11
2018-05-02T07:56:32.549Z,39.65
2018-05-02T07:59:00.060Z,37.54
2018-05-02T08:01:27.707Z,35.79
2018-05-02T08:03:55.286Z,35.50
2018-05-02T08:06:23.012Z,35.26
2018-05-02T08:08:50.606Z,34.87
2018-05-02T08:11:18.213Z,34.67
2018-05-02T08:13:45.846Z,34.29
2018-05-02T08:16:13.567Z,34.46
2018-05-02T08:18:41.087Z,34.09
2018-05-02T08:21:08.698Z,33.81
2018-05-02T08:23:37.167Z,34.02
2018-05-02T08:26:04.847Z,32.55
2018-05-02T08:28:32.398Z,32.48
2018-05-02T08:30:59.970Z,32.93
2018-05-02T08:33:27.624Z,32.14
2018-05-02T08:35:55.244Z,32.54
2018-05-02T08:38:23.026Z,32.64
2018-05-02T08:40:50.590Z,32.99
2018-05-02T08:43:18.138Z,32.08
2018-05-02T08:45:45.724Z,32.60
2018-05-02T08:48:13.904Z,32.46
2018-05-02T08:50:41.717Z,30.96
2018-05-02T08:53:09.340Z,32.06
2018-05-02T08:55:36.961Z,31.85
2018-05-02T08:58:04.866Z,32.19
2018-05-02T09:00:32.615Z,33.09
2018-05-02T09:03:00.188Z,33.36
2018-05-02T09:05:27.803Z,33.79
2018-05-02T09:07:55.399Z,34.27
2018-05-02T09:10:22.979Z,34.84
2018-05-02T09:12:50.524Z,35.63
2018-05-02T09:15:18.136Z,36.28
2018-05-02T09:17:45.731Z,35.35
2018-05-02T09:20:13.333Z,35.25
2018-05-02T09:22:41.054Z,35.13
2018-05-02T09:25:08.639Z,34.97
2018-05-02T09:27:36.165Z,35.28
2018-05-02T09:30:03.778Z,35.21
2018-05-02T09:32:31.356Z,35.46
2018-05-02T09:34:58.888Z,35.76
2018-05-02T09:37:26.636Z,35.70
2018-05-02T09:39:54.188Z,35.62
2018-05-02T09:42:21.758Z,36.19
2018-05-02T09:44:49.356Z,36.33
2018-05-02T09:47:16.978Z,36.67
2018-05-02T09:49:44.552Z,36.78
2018-05-02T09:52:12.207Z,37.04
2018-05-02T09:54:39.779Z,37.50
2018-05-02T09:57:07.326Z,37.17
2018-05-02T09:59:34.960Z,37.02
2018-05-02T10:02:02.524Z,37.13
2018-05-02T10:04:30.127Z,37.12
2018-05-02T10:06:58.620Z,37.71
2018-05-02T10:09:26.196Z,37.69
2018-05-02T10:11:53.818Z,38.06
2018-05-02T10:14:21.482Z,38.24
2018-05-02T10:16:49.105Z,38.44
2018-05-02T10:19:16.763Z,38.63
2018-05-02T10:21:44.707Z,38.75
2018-05-02T10:24:12.325Z,38.25
2018-05-02T10:26:39.955Z,38.02
2018-05-02T10:29:07.549Z,38.70
2018-05-02T10:31:35.134Z,38.72
2018-05-02T10:34:02.708Z,38.24
2018-05-02T10:36:30.307Z,38.26
2018-05-02T10:38:57.849Z,38.36
2018-05-02T10:41:25.464Z,38.08
2018-05-02T10:43:53.047Z,37.88
2018-05-02T10:46:20.735Z,38.00
2018-05-02T10:48:48.294Z,38.28
2018-05-02T10:51:16.023Z,38.59
2018-05-02T10:53:43.551Z,38.50
2018-05-02T10:56:11.186Z,38.13
2018-05-02T10:58:38.746Z,38.76
2018-05-02T11:01:06.274Z,38.76
2018-05-02T11:03:33.843Z,38.82
2018-05-02T11:06:01.440Z,38.57
2018-05-02T11:08:29.209Z,38.39
2018-05-02T11:10:56.717Z,37.97
2018-05-02T11:13:24.297Z,38.41
2018-05-02T11:15:51.863Z,38.39
2018-05-02T11:18:19.503Z,38.71
2018-05-02T11:20:47.128Z,38.02
2018-05-02T11:23:14.692Z,37.89
2018-05-02T11:25:42.203Z,36.59
2018-05-02T11:28:09.897Z,35.76
2018-05-02T11:30:37.444Z,35.49
2018-05-02T11:33:05.796Z,35.01
2018-05-02T11:35:37.148Z,35.47
2018-05-02T11:38:04.847Z,35.90
2018-05-02T11:40:32.433Z,36.16
2018-05-02T11:43:00.312Z,36.15
2018-05-02T11:45:27.914Z,37.21
2018-05-02T11:47:56.114Z,37.58
2018-05-02T11:50:23.702Z,37.76
2018-05-02T11:52:51.329Z,38.39
2018-05-02T11:55:18.988Z,38.74
2018-05-02T11:57:47.160Z,38.79
2018-05-02T12:00:15.313Z,38.90
2018-05-02T12:02:42.928Z,39.08
2018-05-02T12:05:10.654Z,38.90
2018-05-02T12:07:38.182Z,39.16
2018-05-02T12:10:05.825Z,39.87
2018-05-02T12:12:33.470Z,39.76
2018-05-02T12:15:01.863Z,40.83
2018-05-02T12:17:29.406Z,41.21
2018-05-02T12:19:57.868Z,42.13
2018-05-02T12:22:25.398Z,41.95
2018-05-02T12:24:53.324Z,42.45
2018-05-02T12:27:20.972Z,42.86
2018-05-02T12:29:48.598Z,42.57
2018-05-02T12:32:16.220Z,41.97
2018-05-02T12:34:43.796Z,42.00
2018-05-02T12:37:12.020Z,42.23
2018-05-02T12:39:39.548Z,42.68
2018-05-02T12:42:07.135Z,42.63
2018-05-02T12:44:34.897Z,43.56
2018-05-02T12:47:02.461Z,42.97
2018-05-02T12:49:29.997Z,43.05
2018-05-02T12:51:57.685Z,43.41
2018-05-02T12:54:25.469Z,43.55
2018-05-02T12:56:53.758Z,43.71
2018-05-02T12:59:21.376Z,44.12
2018-05-02T13:01:48.964Z,44.18
2018-05-02T13:04:16.537Z,44.54
2018-05-02T13:06:44.177Z,44.60
2018-05-02T13:09:11.690Z,45.19
2018-05-02T13:11:39.300Z,45.30
2018-05-02T13:14:06.910Z,45.04
2018-05-02T13:16:34.517Z,45.20
2018-05-02T13:19:02.046Z,44.86
2018-05-02T13:21:29.608Z,44.79
2018-05-02T13:23:57.185Z,45.19
2018-05-02T13:26:24.730Z,45.03
2018-05-02T13:28:53.169Z,45.11
2018-05-02T13:31:20.950Z,45.23
2018-05-02T13:33:48.484Z,44.69
2018-05-02T13:36:16.076Z,44.60
2018-05-02T13:38:43.642Z,44.29
2018-05-02T13:41:11.196Z,42.90
2018-05-02T13:43:38.734Z,42.50
2018-05-02T13:46:06.275Z,41.86
2018-05-02T13:48:33.841Z,40.96
2018-05-02T13:51:01.430Z,39.87
2018-05-02T13:53:29.304Z,40.02
2018-05-02T13:55:56.854Z,40.28
2018-05-02T13:58:24.688Z,39.39
2018-05-02T14:00:52.520Z,38.65
2018-05-02T14:03:20.041Z,37.69
2018-05-02T14:05:47.609Z,36.52
2018-05-02T14:08:15.201Z,35.93
2018-05-02T14:10:42.783Z,35.07
2018-05-02T14:13:10.296Z,34.40
2018-05-02T14:15:37.958Z,35.06
2018-05-02T14:18:06.468Z,36.32
2018-05-02T14:20:33.991Z,36.86
2018-05-02T14:23:01.493Z,37.01
2018-05-02T14:25:29.071Z,37.44
2018-05-02T14:27:56.600Z,37.13
2018-05-02T14:30:24.516Z,36.49
2018-05-02T14:32:52.140Z,36.76
2018-05-02T14:35:19.640Z,35.82
2018-05-02T14:37:47.192Z,35.92
2018-05-02T14:40:14.757Z,35.93
2018-05-02T14:42:42.324Z,36.41
2018-05-02T14:45:09.868Z,37.00
2018-05-02T14:47:37.456Z,37.16
2018-05-02T14:50:05.029Z,36.81
2018-05-02T14:52:32.617Z,36.89
2018-05-02T14:55:00.208Z,37.34
2018-05-02T14:57:28.030Z,37.61
2018-05-02T14:59:55.547Z,38.22
2018-05-02T15:02:23.171Z,38.54
2018-05-02T15:04:50.737Z,38.67
2018-05-02T15:07:18.297Z,38.91
2018-05-02T15:09:45.852Z,39.10
2018-05-02T15:12:13.366Z,39.44
2018-05-02T15:14:40.919Z,39.35
2018-05-02T15:17:08.464Z,39.29
2018-05-02T15:19:36.029Z,39.18
2018-05-02T15:22:03.631Z,39.43
2018-05-02T15:24:31.178Z,39.84
2018-05-02T15:26:58.694Z,40.26
2018-05-02T15:29:26.206Z,40.46
2018-05-02T15:31:53.844Z,40.22
2018-05-02T15:34:21.361Z,40.31
2018-05-02T15:36:48.971Z,40.40
2018-05-02T15:39:17.961Z,40.57
2018-05-02T15:41:45.809Z,40.84
2018-05-02T15:44:13.310Z,40.82
2018-05-02T15:46:40.869Z,41.12
2018-05-02T15:49:08.385Z,40.33
2018-05-02T15:51:36.008Z,40.23
2018-05-02T15:54:03.718Z,40.48
2018-05-02T15:56:31.316Z,40.37
2018-05-02T15:58:58.864Z,40.85
2018-05-02T16:01:26.422Z,40.97
2018-05-02T16:03:53.948Z,41.35
2018-05-02T16:06:21.985Z,41.51
2018-05-02T16:08:49.568Z,41.79
2018-05-02T16:11:17.187Z,41.69
2018-05-02T16:13:44.770Z,41.70
2018-05-02T16:16:12.419Z,41.94
2018-05-02T16:18:40.080Z,42.59
2018-05-02T16:21:07.675Z,42.46
2018-05-02T16:23:35.293Z,42.53
2018-05-02T16:26:02.845Z,42.70
2018-05-02T16:28:30.369Z,42.55
2018-05-02T16:30:58.293Z,42.87
2018-05-02T16:33:25.803Z,43.25
2018-05-02T16:35:53.342Z,43.53
2018-05-02T16:38:20.878Z,43.66
2018-05-02T16:40:48.414Z,44.15
2018-05-02T16:43:15.962Z,44.23
2018-05-02T16:45:43.489Z,44.00
2018-05-02T16:48:11.074Z,44.19
2018-05-02T16:50:38.644Z,44.06
2018-05-02T16:53:06.617Z,44.01
2018-05-02T16:55:34.493Z,43.91
2018-05-02T16:58:02.046Z,44.00
2018-05-02T17:00:29.730Z,44.31
2018-05-02T17:02:57.354Z,44.32
2018-05-02T17:05:24.889Z,44.54
2018-05-02T17:07:52.722Z,44.87
2018-05-02T17:10:20.272Z,44.29
2018-05-02T17:12:47.810Z,44.48
2018-05-02T17:15:15.350Z,44.54
2018-05-02T17:17:43.055Z,44.63
2018-05-02T17:20:10.919Z,44.79
2018-05-02T17:22:38.660Z,44.89
2018-05-02T17:25:06.243Z,44.87
2018-05-02T17:27:33.803Z,44.82
2018-05-02T17:30:01.467Z,45.00
2018-05-02T17:32:28.978Z,45.33
2018-05-02T17:34:56.493Z,45.39
2018-05-02T17:37:24.051Z,45.41
2018-05-02T17:39:52.322Z,45.61
2018-05-02T17:42:19.941Z,45.39
2018-05-02T17:44:47.748Z,45.27
2018-05-02T17:47:15.292Z,45.38
2018-05-02T17:49:42.820Z,45.34
2018-05-02T17:52:10.409Z,45.44
2018-05-02T17:54:38.043Z,45.76
2018-05-02T17:57:05.750Z,45.64
2018-05-02T17:59:33.618Z,45.91
2018-05-02T18:02:01.120Z,46.40
2018-05-02T18:04:28.710Z,46.37
2018-05-02T18:06:56.288Z,46.58
2018-05-02T18:09:24.597Z,46.30
2018-05-02T18:11:52.140Z,45.77
2018-05-02T18:14:19.765Z,45.88
2018-05-02T18:16:47.362Z,46.02
2018-05-02T18:19:15.029Z,46.34
2018-05-02T18:21:42.904Z,46.85
2018-05-02T18:24:10.503Z,46.44
2018-05-02T18:26:38.034Z,46.38
2018-05-02T18:29:05.585Z,46.34
2018-05-02T18:31:33.114Z,46.22
2018-05-02T18:34:00.680Z,46.37
2018-05-02T18:36:28.301Z,46.41
2018-05-02T18:38:55.807Z,46.81
2018-05-02T18:41:23.336Z,46.50
2018-05-02T18:43:50.910Z,46.42
2018-05-02T18:46:18.425Z,46.57
2018-05-02T18:48:45.945Z,46.57
2018-05-02T18:51:13.544Z,46.66
2018-05-02T18:53:41.059Z,46.80
2018-05-02T18:56:08.619Z,46.66
2018-05-02T18:58:36.249Z,46.81
2018-05-02T19:01:03.740Z,47.02
2018-05-02T19:03:31.261Z,47.10
2018-05-02T19:05:58.844Z,47.24
2018-05-02T19:08:26.515Z,47.33
2018-05-02T19:10:54.654Z,47.84
2018-05-02T19:13:22.199Z,47.84
2018-05-02T19:15:49.762Z,48.25
2018-05-02T19:18:22.889Z,48.02
2018-05-02T19:20:50.517Z,47.87
2018-05-02T19:23:18.032Z,47.80
2018-05-02T19:25:51.282Z,47.78
2018-05-02T19:28:18.896Z,47.63
2018-05-02T19:30:46.405Z,47.79
2018-05-02T19:33:19.464Z,47.98
2018-05-02T19:35:47.014Z,48.16
2018-05-02T19:38:14.610Z,48.32
2018-05-02T19:40:47.576Z,48.61
2018-05-02T19:43:20.761Z,48.79
2018-05-02T19:45:48.651Z,48.35
2018-05-02T19:48:16.164Z,48.28
2018-05-02T19:50:49.496Z,48.10
2018-05-02T19:53:17.157Z,48.00
2018-05-02T19:55:44.711Z,47.96
2018-05-02T19:58:12.349Z,47.69
2018-05-02T20:00:45.604Z,47.55
2018-05-02T20:03:13.223Z,47.62
2018-05-02T20:05:40.887Z,47.68
2018-05-02T20:08:14.151Z,47.75
2018-05-02T20:10:47.464Z,47.67
2018-05-02T20:13:20.927Z,47.63
2018-05-02T20:15:48.605Z,47.65
2018-05-02T20:18:16.187Z,47.78
2018-05-02T20:20:43.818Z,47.72
2018-05-02T20:23:11.374Z,47.74
2018-05-02T20:25:39.017Z,47.75
2018-05-02T20:28:06.573Z,47.58
2018-05-02T20:30:34.118Z,47.76
2018-05-02T20:33:01.781Z,47.99
2018-05-02T20:35:29.375Z,47.98
2018-05-02T20:37:57.235Z,47.92
2018-05-02T20:40:24.764Z,48.15
2018-05-02T20:42:52.360Z,48.56
2018-05-02T20:45:19.917Z,48.41
2018-05-02T20:47:47.677Z,48.39
2018-05-02T20:50:15.254Z,48.65
2018-05-02T20:52:42.954Z,48.76
2018-05-02T20:55:10.605Z,49.27
2018-05-02T20:57:38.681Z,49.44
2018-05-02T21:00:06.514Z,49.41
2018-05-02T21:02:34.053Z,49.31
2018-05-02T21:05:01.564Z,49.11
2018-05-02T21:07:29.089Z,49.22
2018-05-02T21:09:56.623Z,49.45
2018-05-02T21:12:24.390Z,49.53
2018-05-02T21:14:51.929Z,48.97
2018-05-02T21:17:19.438Z,49.02
2018-05-02T21:19:46.977Z,49.01
2018-05-02T21:22:14.509Z,48.90
2018-05-02T21:24:42.295Z,49.55
2018-05-02T21:27:09.844Z,49.49
2018-05-02T21:29:37.383Z,49.67
2018-05-02T21:32:05.190Z,50.01
2018-05-02T21:34:32.753Z,50.37
2018-05-02T21:37:00.368Z,50.22
2018-05-02T21:39:27.992Z,49.95
2018-05-02T21:41:55.500Z,50.31
2018-05-02T21:44:23.033Z,50.17
2018-05-02T21:46:50.560Z,50.38
2018-05-02T21:49:18.109Z,49.93
2018-05-02T21:51:45.678Z,49.66
2018-05-02T21:54:13.193Z,49.15
2018-05-02T21:56:41.102Z,49.23
2018-05-02T21:59:08.994Z,49.88
2018-05-02T22:01:36.523Z,49.67
2018-05-02T22:04:04.101Z,49.42
2018-05-02T22:06:31.608Z,49.89
2018-05-02T22:08:59.104Z,49.90
2018-05-02T22:11:26.647Z,49.68
2018-05-02T22:13:54.189Z,49.88
2018-05-02T22:16:22.690Z,49.96
2018-05-02T22:18:50.284Z,49.86
2018-05-02T22:21:17.969Z,49.44
2018-05-02T22:23:45.536Z,49.65
2018-05-02T22:26:13.116Z,49.93
2018-05-02T22:28:40.697Z,50.07
2018-05-02T22:31:08.281Z,50.31
2018-05-02T22:33:35.811Z,50.57
2018-05-02T22:36:03.381Z,50.45
2018-05-02T22:38:30.992Z,50.85
2018-05-02T22:40:58.557Z,51.35
2018-05-02T22:43:26.111Z,51.18
2018-05-02T22:45:53.672Z,50.94
2018-05-02T22:48:21.509Z,50.91
2018-05-02T22:50:49.038Z,50.97
2018-05-02T22:53:16.617Z,51.04
2018-05-02T22:55:44.167Z,51.13
2018-05-02T22:58:11.963Z,51.49
2018-05-02T23:00:39.485Z,51.85
2018-05-02T23:03:07.045Z,52.57
2018-05-02T23:05:34.585Z,52.29
2018-05-02T23:08:02.104Z,52.17
2018-05-02T23:10:29.643Z,52.24
2018-05-02T23:12:57.192Z,52.50
2018-05-02T23:15:24.722Z,52.60
2018-05-02T23:17:52.311Z,52.53
2018-05-02T23:20:19.905Z,52.98
2018-05-02T23:22:47.428Z,52.96
2018-05-02T23:25:14.971Z,52.96
2018-05-02T23:27:42.516Z,53.10
2018-05-02T23:30:10.058Z,53.20
2018-05-02T23:32:37.661Z,53.56
2018-05-02T23:35:05.239Z,53.48
2018-05-02T23:37:33.037Z,53.66
2018-05-02T23:40:00.617Z,53.84
2018-05-02T23:42:28.143Z,53.91
2018-05-02T23:44:55.696Z,53.79
2018-05-02T23:47:23.838Z,54.29
2018-05-02T23:49:51.362Z,54.38
2018-05-02T23:52:18.906Z,54.56
2018-05-02T23:54:46.512Z,54.94
2018-05-02T23:57:14.082Z,55.11
2018-05-02T23:59:41.581Z,54.84
